Bushy Park, Australia
Current Conditions -  °F | °C
As of 7:00 PM on Monday 26 Jan 2015 (Local Time) from YMHB Reporting Station
Clear Clear  
Wind Chill: 64°   Ceiling: Unl
Heat Index: 64°   Visibility: 6mi
Dew Point: 34°   Wind: 13mph
Humidity: 32%   Direction: 290°WNW
Pressure: 29.94"   Gusts: NA
Location:  42.7°S, 146.88°E
Report Text: YMHB 260800Z 29011KT CAVOK 18/01 Q1014
Loading
Personal Weather Stations






























Interactive Weather Map New forecast layout! Learn more

10-Day Weather Forecast

Advertisements
Track Severe Weather on mobile